sensor_id;sensor_type;location;lat;lon;timestamp;temperature;humidity
77056;SHT30;67471;44.918;8.614;2023-07-20T00:01:45;27.55;68.27
77056;SHT30;67471;44.918;8.614;2023-07-20T00:04:48;27.48;68.41
77056;SHT30;67471;44.918;8.614;2023-07-20T00:07:52;27.48;68.41
77056;SHT30;67471;44.918;8.614;2023-07-20T00:10:56;27.45;68.55
77056;SHT30;67471;44.918;8.614;2023-07-20T00:14:00;27.45;68.72
77056;SHT30;67471;44.918;8.614;2023-07-20T00:17:03;27.61;68.18
77056;SHT30;67471;44.918;8.614;2023-07-20T00:20:07;27.68;67.84
77056;SHT30;67471;44.918;8.614;2023-07-20T00:23:11;27.65;67.91
77056;SHT30;67471;44.918;8.614;2023-07-20T00:26:15;27.78;67.48
77056;SHT30;67471;44.918;8.614;2023-07-20T00:29:19;27.77;67.60
77056;SHT30;67471;44.918;8.614;2023-07-20T00:32:25;27.81;67.38
77056;SHT30;67471;44.918;8.614;2023-07-20T00:35:28;27.85;67.25
77056;SHT30;67471;44.918;8.614;2023-07-20T00:38:32;27.86;67.30
77056;SHT30;67471;44.918;8.614;2023-07-20T00:41:39;27.86;67.23
77056;SHT30;67471;44.918;8.614;2023-07-20T00:44:43;27.89;67.11
77056;SHT30;67471;44.918;8.614;2023-07-20T00:47:47;27.81;67.20
77056;SHT30;67471;44.918;8.614;2023-07-20T00:50:51;27.66;67.68
77056;SHT30;67471;44.918;8.614;2023-07-20T00:53:55;27.64;67.75
77056;SHT30;67471;44.918;8.614;2023-07-20T00:56:58;27.45;68.24
77056;SHT30;67471;44.918;8.614;2023-07-20T01:00:04;27.35;68.47
77056;SHT30;67471;44.918;8.614;2023-07-20T01:03:09;27.23;68.90
77056;SHT30;67471;44.918;8.614;2023-07-20T01:06:29;27.08;69.55
77056;SHT30;67471;44.918;8.614;2023-07-20T01:09:39;26.86;70.43
77056;SHT30;67471;44.918;8.614;2023-07-20T01:12:51;26.65;71.23
77056;SHT30;67471;44.918;8.614;2023-07-20T01:16:02;26.53;71.54
77056;SHT30;67471;44.918;8.614;2023-07-20T01:19:06;26.42;72.04
77056;SHT30;67471;44.918;8.614;2023-07-20T01:29:11;26.38;72.33
77056;SHT30;67471;44.918;8.614;2023-07-20T01:32:23;26.38;72.27
77056;SHT30;67471;44.918;8.614;2023-07-20T01:35:30;26.39;72.22
77056;SHT30;67471;44.918;8.614;2023-07-20T01:38:35;26.55;71.84
77056;SHT30;67471;44.918;8.614;2023-07-20T01:41:39;26.55;71.92
77056;SHT30;67471;44.918;8.614;2023-07-20T01:44:46;26.60;71.88
77056;SHT30;67471;44.918;8.614;2023-07-20T01:47:50;26.53;72.14
77056;SHT30;67471;44.918;8.614;2023-07-20T01:50:53;26.57;72.10
77056;SHT30;67471;44.918;8.614;2023-07-20T01:53:58;26.56;72.16
77056;SHT30;67471;44.918;8.614;2023-07-20T01:57:03;26.59;72.05
77056;SHT30;67471;44.918;8.614;2023-07-20T02:00:07;26.51;71.62
77056;SHT30;67471;44.918;8.614;2023-07-20T02:03:19;26.46;71.57
77056;SHT30;67471;44.918;8.614;2023-07-20T02:06:25;26.39;71.43
77056;SHT30;67471;44.918;8.614;2023-07-20T02:09:29;26.32;71.56
77056;SHT30;67471;44.918;8.614;2023-07-20T02:12:33;26.28;71.49
77056;SHT30;67471;44.918;8.614;2023-07-20T02:15:37;26.32;71.23
77056;SHT30;67471;44.918;8.614;2023-07-20T02:18:41;26.36;71.02
77056;SHT30;67471;44.918;8.614;2023-07-20T02:21:45;26.41;70.83
77056;SHT30;67471;44.918;8.614;2023-07-20T02:24:52;26.31;70.89
77056;SHT30;67471;44.918;8.614;2023-07-20T02:27:56;26.49;70.36
77056;SHT30;67471;44.918;8.614;2023-07-20T02:31:00;26.53;69.97
77056;SHT30;67471;44.918;8.614;2023-07-20T02:34:03;26.60;69.74
77056;SHT30;67471;44.918;8.614;2023-07-20T02:37:08;26.62;69.53
77056;SHT30;67471;44.918;8.614;2023-07-20T02:40:12;26.68;69.31
77056;SHT30;67471;44.918;8.614;2023-07-20T02:43:18;26.65;69.43
77056;SHT30;67471;44.918;8.614;2023-07-20T02:46:23;26.76;68.72
77056;SHT30;67471;44.918;8.614;2023-07-20T02:49:27;26.83;68.36
77056;SHT30;67471;44.918;8.614;2023-07-20T02:52:30;26.83;68.10
77056;SHT30;67471;44.918;8.614;2023-07-20T02:55:34;26.73;68.31
77056;SHT30;67471;44.918;8.614;2023-07-20T02:58:40;26.79;68.06
77056;SHT30;67471;44.918;8.614;2023-07-20T03:01:46;26.82;67.77
77056;SHT30;67471;44.918;8.614;2023-07-20T03:04:50;26.86;67.40
77056;SHT30;67471;44.918;8.614;2023-07-20T03:07:55;26.83;67.41
77056;SHT30;67471;44.918;8.614;2023-07-20T03:10:59;26.76;67.54
77056;SHT30;67471;44.918;8.614;2023-07-20T03:14:03;26.63;67.81
77056;SHT30;67471;44.918;8.614;2023-07-20T03:17:06;26.63;68.03
77056;SHT30;67471;44.918;8.614;2023-07-20T03:20:11;26.68;67.76
77056;SHT30;67471;44.918;8.614;2023-07-20T03:23:16;26.75;67.39
77056;SHT30;67471;44.918;8.614;2023-07-20T03:26:20;26.76;67.57
77056;SHT30;67471;44.918;8.614;2023-07-20T03:29:23;26.78;67.86
77056;SHT30;67471;44.918;8.614;2023-07-20T03:32:27;26.82;68.13
77056;SHT30;67471;44.918;8.614;2023-07-20T03:35:31;26.73;68.44
77056;SHT30;67471;44.918;8.614;2023-07-20T03:38:35;26.76;68.11
77056;SHT30;67471;44.918;8.614;2023-07-20T03:41:38;26.71;68.25
77056;SHT30;67471;44.918;8.614;2023-07-20T03:44:42;26.63;68.48
77056;SHT30;67471;44.918;8.614;2023-07-20T03:47:46;26.55;68.88
77056;SHT30;67471;44.918;8.614;2023-07-20T03:50:52;26.60;68.62
77056;SHT30;67471;44.918;8.614;2023-07-20T03:53:56;26.59;68.28
77056;SHT30;67471;44.918;8.614;2023-07-20T03:57:00;26.57;68.22
77056;SHT30;67471;44.918;8.614;2023-07-20T04:00:04;26.44;68.26
77056;SHT30;67471;44.918;8.614;2023-07-20T04:03:16;26.39;68.39
77056;SHT30;67471;44.918;8.614;2023-07-20T04:06:20;26.39;68.24
77056;SHT30;67471;44.918;8.614;2023-07-20T04:09:24;26.46;67.85
77056;SHT30;67471;44.918;8.614;2023-07-20T04:12:28;26.42;68.15
77056;SHT30;67471;44.918;8.614;2023-07-20T04:15:35;26.36;68.10
77056;SHT30;67471;44.918;8.614;2023-07-20T04:18:38;26.34;67.78
77056;SHT30;67471;44.918;8.614;2023-07-20T04:21:42;26.31;67.81
77056;SHT30;67471;44.918;8.614;2023-07-20T04:24:46;26.29;67.63
77056;SHT30;67471;44.918;8.614;2023-07-20T04:27:50;26.26;67.60
77056;SHT30;67471;44.918;8.614;2023-07-20T04:30:55;26.32;67.11
77056;SHT30;67471;44.918;8.614;2023-07-20T04:33:59;26.32;66.58
77056;SHT30;67471;44.918;8.614;2023-07-20T04:37:04;26.35;66.23
77056;SHT30;67471;44.918;8.614;2023-07-20T04:40:08;26.36;65.97
77056;SHT30;67471;44.918;8.614;2023-07-20T04:43:13;26.39;65.69
77056;SHT30;67471;44.918;8.614;2023-07-20T04:46:17;26.29;65.97
77056;SHT30;67471;44.918;8.614;2023-07-20T04:49:22;26.36;65.97
77056;SHT30;67471;44.918;8.614;2023-07-20T04:52:26;26.36;65.88
77056;SHT30;67471;44.918;8.614;2023-07-20T04:55:30;26.39;65.80
77056;SHT30;67471;44.918;8.614;2023-07-20T04:58:34;26.34;65.85
77056;SHT30;67471;44.918;8.614;2023-07-20T05:01:38;26.35;65.76
77056;SHT30;67471;44.918;8.614;2023-07-20T05:04:42;26.25;65.87
77056;SHT30;67471;44.918;8.614;2023-07-20T05:07:46;26.36;65.61
77056;SHT30;67471;44.918;8.614;2023-07-20T05:10:50;26.44;65.28
77056;SHT30;67471;44.918;8.614;2023-07-20T05:13:54;26.44;65.37
77056;SHT30;67471;44.918;8.614;2023-07-20T05:16:58;26.39;65.60
77056;SHT30;67471;44.918;8.614;2023-07-20T05:20:04;26.51;65.36
77056;SHT30;67471;44.918;8.614;2023-07-20T05:23:08;26.49;65.48
77056;SHT30;67471;44.918;8.614;2023-07-20T05:26:12;26.59;65.26
77056;SHT30;67471;44.918;8.614;2023-07-20T05:29:16;26.68;65.18
77056;SHT30;67471;44.918;8.614;2023-07-20T05:32:20;26.65;65.42
77056;SHT30;67471;44.918;8.614;2023-07-20T05:35:25;26.72;65.40
77056;SHT30;67471;44.918;8.614;2023-07-20T05:38:29;26.82;65.44
77056;SHT30;67471;44.918;8.614;2023-07-20T05:41:33;26.97;65.15
77056;SHT30;67471;44.918;8.614;2023-07-20T05:44:37;27.08;65.00
77056;SHT30;67471;44.918;8.614;2023-07-20T05:47:44;27.15;64.93
77056;SHT30;67471;44.918;8.614;2023-07-20T05:50:47;27.18;65.06
77056;SHT30;67471;44.918;8.614;2023-07-20T05:53:51;27.24;65.10
77056;SHT30;67471;44.918;8.614;2023-07-20T05:56:56;27.30;65.06
77056;SHT30;67471;44.918;8.614;2023-07-20T05:59:59;27.34;64.90
77056;SHT30;67471;44.918;8.614;2023-07-20T06:03:03;27.37;64.56
77056;SHT30;67471;44.918;8.614;2023-07-20T06:06:07;27.35;64.39
77056;SHT30;67471;44.918;8.614;2023-07-20T06:09:12;27.47;64.34
77056;SHT30;67471;44.918;8.614;2023-07-20T06:12:16;27.65;63.85
77056;SHT30;67471;44.918;8.614;2023-07-20T06:15:30;27.75;63.51
77056;SHT30;67471;44.918;8.614;2023-07-20T06:18:34;27.99;62.89
77056;SHT30;67471;44.918;8.614;2023-07-20T06:21:38;28.16;62.34
77056;SHT30;67471;44.918;8.614;2023-07-20T06:24:42;28.71;60.98
77056;SHT30;67471;44.918;8.614;2023-07-20T06:27:49;29.18;59.48
77056;SHT30;67471;44.918;8.614;2023-07-20T06:31:00;30.13;57.14
77056;SHT30;67471;44.918;8.614;2023-07-20T06:34:04;30.67;55.58
77056;SHT30;67471;44.918;8.614;2023-07-20T06:37:11;30.68;55.24
77056;SHT30;67471;44.918;8.614;2023-07-20T06:40:15;30.88;54.52
77056;SHT30;67471;44.918;8.614;2023-07-20T06:43:19;31.09;54.09
77056;SHT30;67471;44.918;8.614;2023-07-20T06:46:23;31.51;53.12
77056;SHT30;67471;44.918;8.614;2023-07-20T06:49:27;31.74;52.44
77056;SHT30;67471;44.918;8.614;2023-07-20T06:52:31;32.01;52.19
77056;SHT30;67471;44.918;8.614;2023-07-20T06:55:35;32.22;51.58
77056;SHT30;67471;44.918;8.614;2023-07-20T06:58:39;32.28;51.33
77056;SHT30;67471;44.918;8.614;2023-07-20T07:01:42;32.58;50.66
77056;SHT30;67471;44.918;8.614;2023-07-20T07:04:46;32.76;50.17
77056;SHT30;67471;44.918;8.614;2023-07-20T07:07:52;32.58;50.57
77056;SHT30;67471;44.918;8.614;2023-07-20T07:10:56;32.43;50.55
77056;SHT30;67471;44.918;8.614;2023-07-20T07:14:00;32.66;50.39
77056;SHT30;67471;44.918;8.614;2023-07-20T07:17:06;33.00;49.58
77056;SHT30;67471;44.918;8.614;2023-07-20T07:20:11;33.41;48.39
77056;SHT30;67471;44.918;8.614;2023-07-20T07:23:14;33.61;48.05
77056;SHT30;67471;44.918;8.614;2023-07-20T07:26:18;33.76;47.59
77056;SHT30;67471;44.918;8.614;2023-07-20T07:29:21;33.78;47.65
77056;SHT30;67471;44.918;8.614;2023-07-20T07:32:25;34.01;46.80
77056;SHT30;67471;44.918;8.614;2023-07-20T07:35:29;34.17;46.16
77056;SHT30;67471;44.918;8.614;2023-07-20T07:38:36;34.12;46.37
77056;SHT30;67471;44.918;8.614;2023-07-20T07:41:39;34.25;45.98
77056;SHT30;67471;44.918;8.614;2023-07-20T07:44:44;34.20;46.21
77056;SHT30;67471;44.918;8.614;2023-07-20T07:47:48;34.61;45.33
77056;SHT30;67471;44.918;8.614;2023-07-20T07:50:51;34.77;45.23
77056;SHT30;67471;44.918;8.614;2023-07-20T07:53:56;35.05;44.26
77056;SHT30;67471;44.918;8.614;2023-07-20T07:57:00;35.07;44.07
77056;SHT30;67471;44.918;8.614;2023-07-20T08:00:05;34.91;44.31
77056;SHT30;67471;44.918;8.614;2023-07-20T08:03:15;34.80;44.57
77056;SHT30;67471;44.918;8.614;2023-07-20T08:06:19;35.03;44.46
77056;SHT30;67471;44.918;8.614;2023-07-20T08:09:23;35.13;43.98
77056;SHT30;67471;44.918;8.614;2023-07-20T08:12:26;35.04;44.05
77056;SHT30;67471;44.918;8.614;2023-07-20T08:15:30;35.24;43.84
77056;SHT30;67471;44.918;8.614;2023-07-20T08:18:34;35.44;43.63
77056;SHT30;67471;44.918;8.614;2023-07-20T08:21:38;35.54;43.33
77056;SHT30;67471;44.918;8.614;2023-07-20T08:24:42;35.89;42.41
77056;SHT30;67471;44.918;8.614;2023-07-20T08:27:46;35.97;41.87
77056;SHT30;67471;44.918;8.614;2023-07-20T08:30:50;36.04;41.50
77056;SHT30;67471;44.918;8.614;2023-07-20T08:33:54;36.23;41.27
77056;SHT30;67471;44.918;8.614;2023-07-20T08:37:00;35.99;41.86
77056;SHT30;67471;44.918;8.614;2023-07-20T08:40:04;35.96;41.88
77056;SHT30;67471;44.918;8.614;2023-07-20T08:43:13;36.03;41.01
77056;SHT30;67471;44.918;8.614;2023-07-20T08:46:17;35.90;41.46
77056;SHT30;67471;44.918;8.614;2023-07-20T08:49:21;36.39;40.93
77056;SHT30;67471;44.918;8.614;2023-07-20T08:52:25;36.39;41.28
77056;SHT30;67471;44.918;8.614;2023-07-20T08:55:29;35.83;42.33
77056;SHT30;67471;44.918;8.614;2023-07-20T08:58:34;35.08;43.81
77056;SHT30;67471;44.918;8.614;2023-07-20T09:01:39;34.94;43.81
77056;SHT30;67471;44.918;8.614;2023-07-20T09:04:44;34.98;43.59
77056;SHT30;67471;44.918;8.614;2023-07-20T09:07:47;35.30;43.15
77056;SHT30;67471;44.918;8.614;2023-07-20T09:10:54;35.76;42.36
77056;SHT30;67471;44.918;8.614;2023-07-20T09:14:08;35.99;41.89
77056;SHT30;67471;44.918;8.614;2023-07-20T09:17:15;35.99;42.12
77056;SHT30;67471;44.918;8.614;2023-07-20T09:20:20;35.68;42.83
77056;SHT30;67471;44.918;8.614;2023-07-20T09:23:30;35.75;43.10
77056;SHT30;67471;44.918;8.614;2023-07-20T09:26:40;36.24;41.86
77056;SHT30;67471;44.918;8.614;2023-07-20T09:29:51;36.44;41.28
77056;SHT30;67471;44.918;8.614;2023-07-20T09:32:55;36.51;40.41
77056;SHT30;67471;44.918;8.614;2023-07-20T09:36:02;36.27;41.17
77056;SHT30;67471;44.918;8.614;2023-07-20T09:39:06;36.12;41.35
77056;SHT30;67471;44.918;8.614;2023-07-20T09:42:12;35.78;41.75
77056;SHT30;67471;44.918;8.614;2023-07-20T09:45:16;35.66;41.88
77056;SHT30;67471;44.918;8.614;2023-07-20T09:48:24;35.17;42.77
77056;SHT30;67471;44.918;8.614;2023-07-20T09:51:28;34.97;43.11
77056;SHT30;67471;44.918;8.614;2023-07-20T09:54:32;35.19;42.63
77056;SHT30;67471;44.918;8.614;2023-07-20T09:57:37;35.90;41.58
77056;SHT30;67471;44.918;8.614;2023-07-20T10:00:42;36.29;40.82
77056;SHT30;67471;44.918;8.614;2023-07-20T10:03:53;36.68;39.86
77056;SHT30;67471;44.918;8.614;2023-07-20T10:06:59;36.43;40.01
77056;SHT30;67471;44.918;8.614;2023-07-20T10:10:04;36.37;40.34
77056;SHT30;67471;44.918;8.614;2023-07-20T10:13:22;36.53;39.99
77056;SHT30;67471;44.918;8.614;2023-07-20T10:16:34;36.44;40.10
77056;SHT30;67471;44.918;8.614;2023-07-20T10:19:47;36.57;40.11
77056;SHT30;67471;44.918;8.614;2023-07-20T10:22:55;37.01;39.46
77056;SHT30;67471;44.918;8.614;2023-07-20T10:26:01;37.18;39.09
77056;SHT30;67471;44.918;8.614;2023-07-20T10:29:06;37.40;38.65
77056;SHT30;67471;44.918;8.614;2023-07-20T10:32:10;37.43;38.59
77056;SHT30;67471;44.918;8.614;2023-07-20T10:35:16;37.40;38.45
77056;SHT30;67471;44.918;8.614;2023-07-20T10:41:50;36.36;40.19
77056;SHT30;67471;44.918;8.614;2023-07-20T10:44:53;36.45;40.39
77056;SHT30;67471;44.918;8.614;2023-07-20T10:47:57;36.94;39.51
77056;SHT30;67471;44.918;8.614;2023-07-20T10:57:29;37.49;38.89
77056;SHT30;67471;44.918;8.614;2023-07-20T11:00:34;37.76;38.04
77056;SHT30;67471;44.918;8.614;2023-07-20T11:03:39;37.70;38.27
77056;SHT30;67471;44.918;8.614;2023-07-20T11:06:44;37.81;38.15
77056;SHT30;67471;44.918;8.614;2023-07-20T11:09:48;38.01;38.02
77056;SHT30;67471;44.918;8.614;2023-07-20T11:13:21;38.24;37.82
77056;SHT30;67471;44.918;8.614;2023-07-20T11:19:48;37.63;38.62
77056;SHT30;67471;44.918;8.614;2023-07-20T11:22:51;37.76;38.51
77056;SHT30;67471;44.918;8.614;2023-07-20T11:25:57;37.96;38.46
77056;SHT30;67471;44.918;8.614;2023-07-20T11:29:02;38.24;37.95
77056;SHT30;67471;44.918;8.614;2023-07-20T11:32:07;38.24;38.07
77056;SHT30;67471;44.918;8.614;2023-07-20T11:35:12;37.74;38.15
77056;SHT30;67471;44.918;8.614;2023-07-20T11:38:16;36.99;39.88
77056;SHT30;67471;44.918;8.614;2023-07-20T11:41:22;37.35;39.89
77056;SHT30;67471;44.918;8.614;2023-07-20T11:44:27;37.63;39.39
77056;SHT30;67471;44.918;8.614;2023-07-20T11:47:31;37.23;39.67
77056;SHT30;67471;44.918;8.614;2023-07-20T11:50:38;36.77;40.72
77056;SHT30;67471;44.918;8.614;2023-07-20T11:53:44;36.72;40.31
77056;SHT30;67471;44.918;8.614;2023-07-20T11:56:53;35.85;42.07
77056;SHT30;67471;44.918;8.614;2023-07-20T11:59:58;35.97;41.75
77056;SHT30;67471;44.918;8.614;2023-07-20T12:03:12;36.30;40.88
77056;SHT30;67471;44.918;8.614;2023-07-20T12:06:16;36.19;41.08
77056;SHT30;67471;44.918;8.614;2023-07-20T12:09:19;35.82;41.22
77056;SHT30;67471;44.918;8.614;2023-07-20T12:12:25;35.51;42.20
77056;SHT30;67471;44.918;8.614;2023-07-20T12:15:29;35.42;42.79
77056;SHT30;67471;44.918;8.614;2023-07-20T12:18:36;35.79;42.14
77056;SHT30;67471;44.918;8.614;2023-07-20T12:21:41;36.27;41.63
77056;SHT30;67471;44.918;8.614;2023-07-20T12:24:46;36.57;41.05
77056;SHT30;67471;44.918;8.614;2023-07-20T12:27:49;36.47;40.35
77056;SHT30;67471;44.918;8.614;2023-07-20T12:30:53;36.41;38.88
77056;SHT30;67471;44.918;8.614;2023-07-20T12:33:59;36.17;39.14
77056;SHT30;67471;44.918;8.614;2023-07-20T12:37:04;35.82;39.38
77056;SHT30;67471;44.918;8.614;2023-07-20T12:40:08;35.65;40.76
77056;SHT30;67471;44.918;8.614;2023-07-20T12:43:14;35.17;41.83
77056;SHT30;67471;44.918;8.614;2023-07-20T12:46:18;35.25;41.63
77056;SHT30;67471;44.918;8.614;2023-07-20T12:49:21;35.52;41.11
77056;SHT30;67471;44.918;8.614;2023-07-20T12:52:25;35.82;40.49
77056;SHT30;67471;44.918;8.614;2023-07-20T12:55:29;35.82;40.62
77056;SHT30;67471;44.918;8.614;2023-07-20T12:58:33;35.97;40.94
77056;SHT30;67471;44.918;8.614;2023-07-20T13:01:37;35.71;41.43
77056;SHT30;67471;44.918;8.614;2023-07-20T13:04:41;35.55;41.55
77056;SHT30;67471;44.918;8.614;2023-07-20T13:07:45;35.61;41.17
77056;SHT30;67471;44.918;8.614;2023-07-20T13:10:49;35.66;41.05
77056;SHT30;67471;44.918;8.614;2023-07-20T13:13:53;35.69;40.95
77056;SHT30;67471;44.918;8.614;2023-07-20T13:16:56;36.12;40.30
77056;SHT30;67471;44.918;8.614;2023-07-20T13:20:01;36.43;38.41
77056;SHT30;67471;44.918;8.614;2023-07-20T13:23:05;36.54;38.50
77056;SHT30;67471;44.918;8.614;2023-07-20T13:26:09;36.90;37.73
77056;SHT30;67471;44.918;8.614;2023-07-20T13:29:13;37.22;37.04
77056;SHT30;67471;44.918;8.614;2023-07-20T13:32:16;37.12;36.52
77056;SHT30;67471;44.918;8.614;2023-07-20T13:35:21;37.11;37.20
77056;SHT30;67471;44.918;8.614;2023-07-20T13:38:25;37.36;37.25
77056;SHT30;67471;44.918;8.614;2023-07-20T13:41:29;36.87;38.31
77056;SHT30;67471;44.918;8.614;2023-07-20T13:44:33;37.02;38.37
77056;SHT30;67471;44.918;8.614;2023-07-20T13:47:37;37.21;37.75
77056;SHT30;67471;44.918;8.614;2023-07-20T13:50:41;37.22;37.94
77056;SHT30;67471;44.918;8.614;2023-07-20T13:53:47;37.31;37.52
77056;SHT30;67471;44.918;8.614;2023-07-20T13:56:50;37.40;37.75
77056;SHT30;67471;44.918;8.614;2023-07-20T13:59:54;37.53;37.37
77056;SHT30;67471;44.918;8.614;2023-07-20T14:03:01;37.22;37.66
77056;SHT30;67471;44.918;8.614;2023-07-20T14:06:05;37.15;38.00
77056;SHT30;67471;44.918;8.614;2023-07-20T14:09:09;37.14;37.56
77056;SHT30;67471;44.918;8.614;2023-07-20T14:12:13;37.18;37.67
77056;SHT30;67471;44.918;8.614;2023-07-20T14:15:17;37.33;37.55
77056;SHT30;67471;44.918;8.614;2023-07-20T14:18:22;37.55;36.96
77056;SHT30;67471;44.918;8.614;2023-07-20T14:21:26;37.22;37.30
77056;SHT30;67471;44.918;8.614;2023-07-20T14:24:30;36.78;37.84
77056;SHT30;67471;44.918;8.614;2023-07-20T14:27:34;36.67;38.32
77056;SHT30;67471;44.918;8.614;2023-07-20T14:30:38;36.75;38.58
77056;SHT30;67471;44.918;8.614;2023-07-20T14:33:42;36.78;38.69
77056;SHT30;67471;44.918;8.614;2023-07-20T14:36:46;36.91;38.83
77056;SHT30;67471;44.918;8.614;2023-07-20T14:39:49;36.82;38.17
77056;SHT30;67471;44.918;8.614;2023-07-20T14:42:55;36.58;40.56
77056;SHT30;67471;44.918;8.614;2023-07-20T14:45:59;36.61;41.45
77056;SHT30;67471;44.918;8.614;2023-07-20T14:49:03;36.61;41.70
77056;SHT30;67471;44.918;8.614;2023-07-20T14:52:07;36.45;41.70
77056;SHT30;67471;44.918;8.614;2023-07-20T14:55:12;36.50;41.69
77056;SHT30;67471;44.918;8.614;2023-07-20T14:58:15;36.51;41.75
77056;SHT30;67471;44.918;8.614;2023-07-20T15:01:19;36.75;41.31
77056;SHT30;67471;44.918;8.614;2023-07-20T15:04:22;36.66;41.29
77056;SHT30;67471;44.918;8.614;2023-07-20T15:07:29;36.60;41.61
77056;SHT30;67471;44.918;8.614;2023-07-20T15:10:33;36.74;41.32
77056;SHT30;67471;44.918;8.614;2023-07-20T15:13:36;36.96;40.94
77056;SHT30;67471;44.918;8.614;2023-07-20T15:16:40;37.14;40.51
77056;SHT30;67471;44.918;8.614;2023-07-20T15:19:44;37.19;40.48
77056;SHT30;67471;44.918;8.614;2023-07-20T15:22:48;37.26;40.37
77056;SHT30;67471;44.918;8.614;2023-07-20T15:25:52;37.35;40.59
77056;SHT30;67471;44.918;8.614;2023-07-20T15:28:56;37.28;40.66
77056;SHT30;67471;44.918;8.614;2023-07-20T15:32:02;37.31;40.57
77056;SHT30;67471;44.918;8.614;2023-07-20T15:35:06;37.15;40.83
77056;SHT30;67471;44.918;8.614;2023-07-20T15:38:10;37.18;40.91
77056;SHT30;67471;44.918;8.614;2023-07-20T15:41:13;37.03;40.85
77056;SHT30;67471;44.918;8.614;2023-07-20T15:44:18;36.90;40.67
77056;SHT30;67471;44.918;8.614;2023-07-20T15:47:21;36.78;40.98
77056;SHT30;67471;44.918;8.614;2023-07-20T15:50:28;36.70;40.89
77056;SHT30;67471;44.918;8.614;2023-07-20T15:53:32;36.71;41.24
77056;SHT30;67471;44.918;8.614;2023-07-20T15:56:37;36.70;41.38
77056;SHT30;67471;44.918;8.614;2023-07-20T15:59:41;36.66;41.69
77056;SHT30;67471;44.918;8.614;2023-07-20T16:02:45;36.63;41.78
77056;SHT30;67471;44.918;8.614;2023-07-20T16:05:48;36.64;41.79
77056;SHT30;67471;44.918;8.614;2023-07-20T16:08:52;36.80;41.54
77056;SHT30;67471;44.918;8.614;2023-07-20T16:11:56;36.77;41.51
77056;SHT30;67471;44.918;8.614;2023-07-20T16:15:01;36.66;41.68
77056;SHT30;67471;44.918;8.614;2023-07-20T16:18:06;36.47;42.21
77056;SHT30;67471;44.918;8.614;2023-07-20T16:21:10;36.53;42.11
77056;SHT30;67471;44.918;8.614;2023-07-20T16:24:14;36.43;42.03
77056;SHT30;67471;44.918;8.614;2023-07-20T16:27:17;36.31;42.17
77056;SHT30;67471;44.918;8.614;2023-07-20T16:30:21;36.07;42.43
77056;SHT30;67471;44.918;8.614;2023-07-20T16:33:25;35.96;42.57
77056;SHT30;67471;44.918;8.614;2023-07-20T16:36:32;36.02;42.83
77056;SHT30;67471;44.918;8.614;2023-07-20T16:39:38;35.82;42.82
77056;SHT30;67471;44.918;8.614;2023-07-20T16:42:44;35.81;42.55
77056;SHT30;67471;44.918;8.614;2023-07-20T16:45:47;35.83;42.56
77056;SHT30;67471;44.918;8.614;2023-07-20T16:48:51;35.66;42.54
77056;SHT30;67471;44.918;8.614;2023-07-20T16:51:55;35.54;42.94
77056;SHT30;67471;44.918;8.614;2023-07-20T16:54:59;35.37;43.08
77056;SHT30;67471;44.918;8.614;2023-07-20T16:58:03;35.13;43.61
77056;SHT30;67471;44.918;8.614;2023-07-20T17:01:07;35.00;43.82
77056;SHT30;67471;44.918;8.614;2023-07-20T17:04:11;35.03;43.87
77056;SHT30;67471;44.918;8.614;2023-07-20T17:07:18;34.80;44.62
77056;SHT30;67471;44.918;8.614;2023-07-20T17:10:22;34.63;44.91
77056;SHT30;67471;44.918;8.614;2023-07-20T17:13:26;34.53;44.23
77056;SHT30;67471;44.918;8.614;2023-07-20T17:16:30;34.50;43.91
77056;SHT30;67471;44.918;8.614;2023-07-20T17:19:34;34.42;44.60
77056;SHT30;67471;44.918;8.614;2023-07-20T17:22:38;34.46;44.39
77056;SHT30;67471;44.918;8.614;2023-07-20T17:25:46;34.22;45.08
77056;SHT30;67471;44.918;8.614;2023-07-20T17:28:50;34.15;45.63
77056;SHT30;67471;44.918;8.614;2023-07-20T17:31:53;34.01;46.97
77056;SHT30;67471;44.918;8.614;2023-07-20T17:34:57;33.98;46.91
77056;SHT30;67471;44.918;8.614;2023-07-20T17:38:01;33.89;46.49
77056;SHT30;67471;44.918;8.614;2023-07-20T17:41:04;33.88;46.24
77056;SHT30;67471;44.918;8.614;2023-07-20T17:44:08;33.72;47.44
77056;SHT30;67471;44.918;8.614;2023-07-20T17:47:12;33.59;48.02
77056;SHT30;67471;44.918;8.614;2023-07-20T17:50:16;33.55;48.24
77056;SHT30;67471;44.918;8.614;2023-07-20T17:53:20;33.51;48.66
77056;SHT30;67471;44.918;8.614;2023-07-20T17:56:24;33.45;48.96
77056;SHT30;67471;44.918;8.614;2023-07-20T17:59:28;33.53;48.85
77056;SHT30;67471;44.918;8.614;2023-07-20T18:02:32;33.45;49.31
77056;SHT30;67471;44.918;8.614;2023-07-20T18:05:36;33.43;49.69
77056;SHT30;67471;44.918;8.614;2023-07-20T18:08:39;33.28;50.33
77056;SHT30;67471;44.918;8.614;2023-07-20T18:11:45;33.10;51.47
77056;SHT30;67471;44.918;8.614;2023-07-20T18:14:49;33.00;51.99
77056;SHT30;67471;44.918;8.614;2023-07-20T18:17:53;33.06;51.93
77056;SHT30;67471;44.918;8.614;2023-07-20T18:20:56;33.02;52.13
77056;SHT30;67471;44.918;8.614;2023-07-20T18:24:00;32.87;52.69
77056;SHT30;67471;44.918;8.614;2023-07-20T18:27:04;32.77;52.86
77056;SHT30;67471;44.918;8.614;2023-07-20T18:30:08;32.51;53.72
77056;SHT30;67471;44.918;8.614;2023-07-20T18:33:12;32.15;54.62
77056;SHT30;67471;44.918;8.614;2023-07-20T18:36:19;32.17;54.66
77056;SHT30;67471;44.918;8.614;2023-07-20T18:39:23;32.01;55.09
77056;SHT30;67471;44.918;8.614;2023-07-20T18:42:26;32.00;55.21
77056;SHT30;67471;44.918;8.614;2023-07-20T18:45:30;32.05;55.17
77056;SHT30;67471;44.918;8.614;2023-07-20T18:48:34;31.92;55.54
77056;SHT30;67471;44.918;8.614;2023-07-20T18:51:38;31.91;55.81
77056;SHT30;67471;44.918;8.614;2023-07-20T18:54:41;31.71;56.35
77056;SHT30;67471;44.918;8.614;2023-07-20T18:57:45;31.78;56.20
77056;SHT30;67471;44.918;8.614;2023-07-20T19:00:49;31.56;56.84
77056;SHT30;67471;44.918;8.614;2023-07-20T19:03:53;31.71;56.53
77056;SHT30;67471;44.918;8.614;2023-07-20T19:07:00;31.40;57.16
77056;SHT30;67471;44.918;8.614;2023-07-20T19:10:04;31.46;56.90
77056;SHT30;67471;44.918;8.614;2023-07-20T19:13:08;31.41;56.94
77056;SHT30;67471;44.918;8.614;2023-07-20T19:16:12;31.27;57.34
77056;SHT30;67471;44.918;8.614;2023-07-20T19:19:16;31.15;57.76
77056;SHT30;67471;44.918;8.614;2023-07-20T19:22:23;30.92;58.44
77056;SHT30;67471;44.918;8.614;2023-07-20T19:25:27;30.85;58.67
77056;SHT30;67471;44.918;8.614;2023-07-20T19:28:30;30.81;58.87
77056;SHT30;67471;44.918;8.614;2023-07-20T19:31:34;30.82;58.99
77056;SHT30;67471;44.918;8.614;2023-07-20T19:34:38;30.78;59.02
77056;SHT30;67471;44.918;8.614;2023-07-20T19:37:42;30.91;58.94
77056;SHT30;67471;44.918;8.614;2023-07-20T19:40:47;30.81;59.12
77056;SHT30;67471;44.918;8.614;2023-07-20T19:43:51;30.85;59.05
77056;SHT30;67471;44.918;8.614;2023-07-20T19:46:55;30.91;58.83